sensor_id;sensor_type;location;lat;lon;timestamp;P1;durP1;ratioP1;P2;durP2;ratioP2
11498;SDS011;5806;48.748;9.278;2024-01-16T00:01:07;12.93;;;8.10;;
11498;SDS011;5806;48.748;9.278;2024-01-16T00:03:34;12.90;;;7.70;;
11498;SDS011;5806;48.748;9.278;2024-01-16T00:06:02;11.87;;;7.80;;
11498;SDS011;5806;48.748;9.278;2024-01-16T00:08:30;10.77;;;7.77;;
11498;SDS011;5806;48.748;9.278;2024-01-16T00:10:57;12.07;;;8.07;;
11498;SDS011;5806;48.748;9.278;2024-01-16T00:13:24;10.40;;;7.97;;
11498;SDS011;5806;48.748;9.278;2024-01-16T00:15:53;14.00;;;8.33;;
11498;SDS011;5806;48.748;9.278;2024-01-16T00:18:22;12.97;;;8.23;;
11498;SDS011;5806;48.748;9.278;2024-01-16T00:20:49;11.33;;;7.70;;
11498;SDS011;5806;48.748;9.278;2024-01-16T00:23:17;11.17;;;8.20;;
11498;SDS011;5806;48.748;9.278;2024-01-16T00:25:44;11.83;;;7.67;;
11498;SDS011;5806;48.748;9.278;2024-01-16T00:28:12;11.23;;;8.23;;
11498;SDS011;5806;48.748;9.278;2024-01-16T00:30:39;16.00;;;8.00;;
11498;SDS011;5806;48.748;9.278;2024-01-16T00:33:07;12.97;;;7.90;;
11498;SDS011;5806;48.748;9.278;2024-01-16T00:35:35;11.70;;;7.33;;
11498;SDS011;5806;48.748;9.278;2024-01-16T00:38:03;10.70;;;8.13;;
11498;SDS011;5806;48.748;9.278;2024-01-16T00:40:31;15.57;;;8.40;;
11498;SDS011;5806;48.748;9.278;2024-01-16T00:42:58;13.37;;;7.87;;
11498;SDS011;5806;48.748;9.278;2024-01-16T00:45:26;11.60;;;8.30;;
11498;SDS011;5806;48.748;9.278;2024-01-16T00:47:53;10.27;;;8.03;;
11498;SDS011;5806;48.748;9.278;2024-01-16T00:50:21;13.33;;;8.37;;
11498;SDS011;5806;48.748;9.278;2024-01-16T00:52:49;10.53;;;7.87;;
11498;SDS011;5806;48.748;9.278;2024-01-16T00:55:17;10.03;;;8.00;;
11498;SDS011;5806;48.748;9.278;2024-01-16T00:57:44;15.53;;;8.30;;
11498;SDS011;5806;48.748;9.278;2024-01-16T01:00:12;12.53;;;8.13;;
11498;SDS011;5806;48.748;9.278;2024-01-16T01:02:39;11.07;;;8.20;;
11498;SDS011;5806;48.748;9.278;2024-01-16T01:05:08;16.83;;;8.30;;
11498;SDS011;5806;48.748;9.278;2024-01-16T01:07:35;12.07;;;8.43;;
11498;SDS011;5806;48.748;9.278;2024-01-16T01:10:02;15.73;;;9.50;;
11498;SDS011;5806;48.748;9.278;2024-01-16T01:12:30;15.10;;;9.77;;
11498;SDS011;5806;48.748;9.278;2024-01-16T01:14:58;14.13;;;9.00;;
11498;SDS011;5806;48.748;9.278;2024-01-16T01:17:25;11.90;;;9.07;;
11498;SDS011;5806;48.748;9.278;2024-01-16T01:19:53;16.60;;;8.87;;
11498;SDS011;5806;48.748;9.278;2024-01-16T01:22:20;12.57;;;8.90;;
11498;SDS011;5806;48.748;9.278;2024-01-16T01:24:47;13.13;;;9.03;;
11498;SDS011;5806;48.748;9.278;2024-01-16T01:27:15;12.37;;;8.77;;
11498;SDS011;5806;48.748;9.278;2024-01-16T01:29:42;17.00;;;9.03;;
11498;SDS011;5806;48.748;9.278;2024-01-16T01:32:10;13.67;;;10.20;;
11498;SDS011;5806;48.748;9.278;2024-01-16T01:34:37;12.73;;;9.07;;
11498;SDS011;5806;48.748;9.278;2024-01-16T01:37:07;14.53;;;9.37;;
11498;SDS011;5806;48.748;9.278;2024-01-16T01:39:34;14.87;;;9.10;;
11498;SDS011;5806;48.748;9.278;2024-01-16T01:42:02;14.90;;;9.73;;
11498;SDS011;5806;48.748;9.278;2024-01-16T01:44:29;13.00;;;8.03;;
11498;SDS011;5806;48.748;9.278;2024-01-16T01:46:57;11.83;;;8.30;;
11498;SDS011;5806;48.748;9.278;2024-01-16T01:49:24;13.37;;;8.33;;
11498;SDS011;5806;48.748;9.278;2024-01-16T01:51:54;11.67;;;7.60;;
11498;SDS011;5806;48.748;9.278;2024-01-16T01:54:21;13.83;;;7.73;;
11498;SDS011;5806;48.748;9.278;2024-01-16T01:56:51;14.17;;;7.57;;
11498;SDS011;5806;48.748;9.278;2024-01-16T01:59:18;14.07;;;7.67;;
11498;SDS011;5806;48.748;9.278;2024-01-16T02:01:48;13.17;;;7.67;;
11498;SDS011;5806;48.748;9.278;2024-01-16T02:04:21;10.17;;;6.90;;
11498;SDS011;5806;48.748;9.278;2024-01-16T02:06:50;11.23;;;7.13;;
11498;SDS011;5806;48.748;9.278;2024-01-16T02:09:17;13.47;;;7.27;;
11498;SDS011;5806;48.748;9.278;2024-01-16T02:11:45;14.93;;;7.63;;
11498;SDS011;5806;48.748;9.278;2024-01-16T02:14:13;14.27;;;7.73;;
11498;SDS011;5806;48.748;9.278;2024-01-16T02:16:40;14.83;;;7.60;;
11498;SDS011;5806;48.748;9.278;2024-01-16T02:19:10;14.53;;;7.80;;
11498;SDS011;5806;48.748;9.278;2024-01-16T02:21:42;13.67;;;7.37;;
11498;SDS011;5806;48.748;9.278;2024-01-16T02:24:11;13.53;;;7.23;;
11498;SDS011;5806;48.748;9.278;2024-01-16T02:26:42;12.33;;;7.73;;
11498;SDS011;5806;48.748;9.278;2024-01-16T02:29:09;12.70;;;7.87;;
11498;SDS011;5806;48.748;9.278;2024-01-16T02:31:37;15.73;;;9.20;;
11498;SDS011;5806;48.748;9.278;2024-01-16T02:34:04;12.87;;;7.20;;
11498;SDS011;5806;48.748;9.278;2024-01-16T02:36:32;16.40;;;8.47;;
11498;SDS011;5806;48.748;9.278;2024-01-16T02:38:59;9.40;;;7.57;;
11498;SDS011;5806;48.748;9.278;2024-01-16T02:41:27;10.53;;;7.47;;
11498;SDS011;5806;48.748;9.278;2024-01-16T02:43:54;9.93;;;7.17;;
11498;SDS011;5806;48.748;9.278;2024-01-16T02:46:22;14.10;;;8.20;;
11498;SDS011;5806;48.748;9.278;2024-01-16T02:48:50;10.87;;;8.27;;
11498;SDS011;5806;48.748;9.278;2024-01-16T02:51:17;13.70;;;8.47;;
11498;SDS011;5806;48.748;9.278;2024-01-16T02:53:45;15.10;;;8.50;;
11498;SDS011;5806;48.748;9.278;2024-01-16T02:56:12;13.00;;;8.33;;
11498;SDS011;5806;48.748;9.278;2024-01-16T02:58:40;16.73;;;8.97;;
11498;SDS011;5806;48.748;9.278;2024-01-16T03:01:07;12.97;;;8.57;;
11498;SDS011;5806;48.748;9.278;2024-01-16T03:03:34;15.03;;;9.30;;
11498;SDS011;5806;48.748;9.278;2024-01-16T03:06:02;13.17;;;8.13;;
11498;SDS011;5806;48.748;9.278;2024-01-16T03:08:30;13.63;;;7.83;;
11498;SDS011;5806;48.748;9.278;2024-01-16T03:10:57;11.07;;;8.20;;
11498;SDS011;5806;48.748;9.278;2024-01-16T03:13:24;13.60;;;8.97;;
11498;SDS011;5806;48.748;9.278;2024-01-16T03:15:52;13.60;;;8.30;;
11498;SDS011;5806;48.748;9.278;2024-01-16T03:18:19;16.67;;;8.40;;
11498;SDS011;5806;48.748;9.278;2024-01-16T03:20:47;16.53;;;8.13;;
11498;SDS011;5806;48.748;9.278;2024-01-16T03:23:15;15.17;;;8.53;;
11498;SDS011;5806;48.748;9.278;2024-01-16T03:25:42;12.03;;;7.47;;
11498;SDS011;5806;48.748;9.278;2024-01-16T03:28:09;15.87;;;8.17;;
11498;SDS011;5806;48.748;9.278;2024-01-16T03:30:37;14.00;;;7.77;;
11498;SDS011;5806;48.748;9.278;2024-01-16T03:33:04;13.57;;;7.27;;
11498;SDS011;5806;48.748;9.278;2024-01-16T03:35:32;9.37;;;7.23;;
11498;SDS011;5806;48.748;9.278;2024-01-16T03:37:59;14.70;;;7.77;;
11498;SDS011;5806;48.748;9.278;2024-01-16T03:40:27;15.17;;;7.80;;
11498;SDS011;5806;48.748;9.278;2024-01-16T03:42:56;11.47;;;7.73;;
11498;SDS011;5806;48.748;9.278;2024-01-16T03:45:23;11.80;;;6.60;;
11498;SDS011;5806;48.748;9.278;2024-01-16T03:47:51;13.67;;;8.20;;
11498;SDS011;5806;48.748;9.278;2024-01-16T03:50:18;14.23;;;7.80;;
11498;SDS011;5806;48.748;9.278;2024-01-16T03:52:45;11.37;;;7.37;;
11498;SDS011;5806;48.748;9.278;2024-01-16T03:55:13;14.73;;;7.63;;
11498;SDS011;5806;48.748;9.278;2024-01-16T03:57:40;13.30;;;7.50;;
11498;SDS011;5806;48.748;9.278;2024-01-16T04:00:08;11.93;;;7.90;;
11498;SDS011;5806;48.748;9.278;2024-01-16T04:02:38;9.47;;;7.20;;
11498;SDS011;5806;48.748;9.278;2024-01-16T04:05:05;13.37;;;7.53;;
11498;SDS011;5806;48.748;9.278;2024-01-16T04:07:33;11.43;;;7.50;;
11498;SDS011;5806;48.748;9.278;2024-01-16T04:10:00;12.30;;;7.77;;
11498;SDS011;5806;48.748;9.278;2024-01-16T04:12:29;9.53;;;7.10;;
11498;SDS011;5806;48.748;9.278;2024-01-16T04:14:57;13.70;;;7.77;;
11498;SDS011;5806;48.748;9.278;2024-01-16T04:17:24;12.83;;;7.37;;
11498;SDS011;5806;48.748;9.278;2024-01-16T04:19:52;13.47;;;7.43;;
11498;SDS011;5806;48.748;9.278;2024-01-16T04:22:19;11.97;;;8.00;;
11498;SDS011;5806;48.748;9.278;2024-01-16T04:24:47;15.07;;;7.73;;
11498;SDS011;5806;48.748;9.278;2024-01-16T04:27:14;13.87;;;8.43;;
11498;SDS011;5806;48.748;9.278;2024-01-16T04:29:41;15.03;;;8.07;;
11498;SDS011;5806;48.748;9.278;2024-01-16T04:32:09;14.20;;;8.40;;
11498;SDS011;5806;48.748;9.278;2024-01-16T04:34:36;15.33;;;8.87;;
11498;SDS011;5806;48.748;9.278;2024-01-16T04:37:04;14.63;;;8.87;;
11498;SDS011;5806;48.748;9.278;2024-01-16T04:39:31;15.20;;;9.40;;
11498;SDS011;5806;48.748;9.278;2024-01-16T04:41:59;14.10;;;9.10;;
11498;SDS011;5806;48.748;9.278;2024-01-16T04:44:26;12.37;;;8.90;;
11498;SDS011;5806;48.748;9.278;2024-01-16T04:46:53;13.07;;;9.00;;
11498;SDS011;5806;48.748;9.278;2024-01-16T04:49:21;13.97;;;9.63;;
11498;SDS011;5806;48.748;9.278;2024-01-16T04:51:49;14.13;;;9.63;;
11498;SDS011;5806;48.748;9.278;2024-01-16T04:54:16;10.97;;;8.90;;
11498;SDS011;5806;48.748;9.278;2024-01-16T04:56:44;16.67;;;9.13;;
11498;SDS011;5806;48.748;9.278;2024-01-16T04:59:11;16.23;;;8.70;;
11498;SDS011;5806;48.748;9.278;2024-01-16T05:01:39;15.90;;;9.13;;
11498;SDS011;5806;48.748;9.278;2024-01-16T05:04:06;14.83;;;8.97;;
11498;SDS011;5806;48.748;9.278;2024-01-16T05:06:35;12.70;;;8.53;;
11498;SDS011;5806;48.748;9.278;2024-01-16T05:09:03;12.73;;;8.80;;
11498;SDS011;5806;48.748;9.278;2024-01-16T05:11:30;17.80;;;8.57;;
11498;SDS011;5806;48.748;9.278;2024-01-16T05:13:58;15.60;;;9.57;;
11498;SDS011;5806;48.748;9.278;2024-01-16T05:16:25;12.80;;;8.13;;
11498;SDS011;5806;48.748;9.278;2024-01-16T05:18:53;16.10;;;9.10;;
11498;SDS011;5806;48.748;9.278;2024-01-16T05:21:21;14.13;;;8.73;;
11498;SDS011;5806;48.748;9.278;2024-01-16T05:23:48;11.23;;;8.80;;
11498;SDS011;5806;48.748;9.278;2024-01-16T05:26:15;14.27;;;7.53;;
11498;SDS011;5806;48.748;9.278;2024-01-16T05:28:43;13.97;;;7.37;;
11498;SDS011;5806;48.748;9.278;2024-01-16T05:31:10;10.60;;;7.13;;
11498;SDS011;5806;48.748;9.278;2024-01-16T05:33:38;13.63;;;7.23;;
11498;SDS011;5806;48.748;9.278;2024-01-16T05:36:05;15.27;;;6.87;;
11498;SDS011;5806;48.748;9.278;2024-01-16T05:38:33;13.83;;;6.57;;
11498;SDS011;5806;48.748;9.278;2024-01-16T05:41:01;15.53;;;6.93;;
11498;SDS011;5806;48.748;9.278;2024-01-16T05:43:29;12.40;;;6.70;;
11498;SDS011;5806;48.748;9.278;2024-01-16T05:45:56;20.37;;;6.50;;
11498;SDS011;5806;48.748;9.278;2024-01-16T05:48:24;13.23;;;6.53;;
11498;SDS011;5806;48.748;9.278;2024-01-16T05:50:51;18.30;;;5.80;;
11498;SDS011;5806;48.748;9.278;2024-01-16T05:53:18;9.47;;;5.73;;
11498;SDS011;5806;48.748;9.278;2024-01-16T05:55:46;13.53;;;6.03;;
11498;SDS011;5806;48.748;9.278;2024-01-16T05:58:13;14.27;;;6.50;;
11498;SDS011;5806;48.748;9.278;2024-01-16T06:00:41;9.20;;;5.70;;
11498;SDS011;5806;48.748;9.278;2024-01-16T06:03:08;13.20;;;5.73;;
11498;SDS011;5806;48.748;9.278;2024-01-16T06:05:35;10.63;;;5.73;;
11498;SDS011;5806;48.748;9.278;2024-01-16T06:08:03;12.60;;;6.53;;
11498;SDS011;5806;48.748;9.278;2024-01-16T06:10:31;15.33;;;5.97;;
11498;SDS011;5806;48.748;9.278;2024-01-16T06:12:58;9.70;;;5.77;;
11498;SDS011;5806;48.748;9.278;2024-01-16T06:15:26;11.23;;;6.13;;
11498;SDS011;5806;48.748;9.278;2024-01-16T06:17:53;11.70;;;5.23;;
11498;SDS011;5806;48.748;9.278;2024-01-16T06:20:20;13.50;;;6.07;;
11498;SDS011;5806;48.748;9.278;2024-01-16T06:22:49;11.73;;;6.00;;
11498;SDS011;5806;48.748;9.278;2024-01-16T06:25:17;13.37;;;5.50;;
11498;SDS011;5806;48.748;9.278;2024-01-16T06:27:44;8.87;;;5.90;;
11498;SDS011;5806;48.748;9.278;2024-01-16T06:30:12;12.57;;;5.40;;
11498;SDS011;5806;48.748;9.278;2024-01-16T06:32:39;14.27;;;5.90;;
11498;SDS011;5806;48.748;9.278;2024-01-16T06:35:07;12.57;;;5.93;;
11498;SDS011;5806;48.748;9.278;2024-01-16T06:37:34;9.43;;;5.47;;
11498;SDS011;5806;48.748;9.278;2024-01-16T06:40:03;12.40;;;5.77;;
11498;SDS011;5806;48.748;9.278;2024-01-16T06:42:31;14.90;;;5.90;;
11498;SDS011;5806;48.748;9.278;2024-01-16T06:44:58;13.80;;;5.80;;
11498;SDS011;5806;48.748;9.278;2024-01-16T06:47:26;14.57;;;5.90;;
11498;SDS011;5806;48.748;9.278;2024-01-16T06:49:53;12.47;;;5.37;;
11498;SDS011;5806;48.748;9.278;2024-01-16T06:52:21;9.30;;;4.80;;
11498;SDS011;5806;48.748;9.278;2024-01-16T06:54:48;13.47;;;5.73;;
11498;SDS011;5806;48.748;9.278;2024-01-16T06:57:16;12.10;;;5.70;;
11498;SDS011;5806;48.748;9.278;2024-01-16T06:59:43;12.53;;;6.00;;
11498;SDS011;5806;48.748;9.278;2024-01-16T07:02:10;12.57;;;5.00;;
11498;SDS011;5806;48.748;9.278;2024-01-16T07:04:38;10.97;;;5.37;;
11498;SDS011;5806;48.748;9.278;2024-01-16T07:07:05;11.83;;;5.20;;
11498;SDS011;5806;48.748;9.278;2024-01-16T07:09:33;11.97;;;5.53;;
11498;SDS011;5806;48.748;9.278;2024-01-16T07:12:00;6.90;;;4.63;;
11498;SDS011;5806;48.748;9.278;2024-01-16T07:14:29;14.87;;;4.90;;
11498;SDS011;5806;48.748;9.278;2024-01-16T07:16:57;9.00;;;4.73;;
11498;SDS011;5806;48.748;9.278;2024-01-16T07:19:25;9.50;;;4.97;;
11498;SDS011;5806;48.748;9.278;2024-01-16T07:21:52;10.53;;;5.07;;
11498;SDS011;5806;48.748;9.278;2024-01-16T07:24:20;12.07;;;5.33;;
11498;SDS011;5806;48.748;9.278;2024-01-16T07:26:49;9.07;;;3.93;;
11498;SDS011;5806;48.748;9.278;2024-01-16T07:29:19;15.53;;;5.30;;
11498;SDS011;5806;48.748;9.278;2024-01-16T07:31:46;11.47;;;5.07;;
11498;SDS011;5806;48.748;9.278;2024-01-16T07:34:13;8.60;;;4.10;;
11498;SDS011;5806;48.748;9.278;2024-01-16T07:36:42;8.13;;;3.47;;
11498;SDS011;5806;48.748;9.278;2024-01-16T07:39:10;9.80;;;4.23;;
11498;SDS011;5806;48.748;9.278;2024-01-16T07:41:37;10.73;;;4.27;;
11498;SDS011;5806;48.748;9.278;2024-01-16T07:44:05;9.17;;;3.67;;
11498;SDS011;5806;48.748;9.278;2024-01-16T07:46:33;11.87;;;4.13;;
11498;SDS011;5806;48.748;9.278;2024-01-16T07:49:00;10.87;;;3.77;;
11498;SDS011;5806;48.748;9.278;2024-01-16T07:51:28;8.93;;;3.80;;
11498;SDS011;5806;48.748;9.278;2024-01-16T07:54:04;11.43;;;3.70;;
11498;SDS011;5806;48.748;9.278;2024-01-16T07:56:34;10.97;;;4.70;;
11498;SDS011;5806;48.748;9.278;2024-01-16T07:59:03;9.63;;;3.67;;
11498;SDS011;5806;48.748;9.278;2024-01-16T08:01:31;6.50;;;3.73;;
11498;SDS011;5806;48.748;9.278;2024-01-16T08:03:58;10.43;;;3.87;;
11498;SDS011;5806;48.748;9.278;2024-01-16T08:06:26;11.17;;;3.30;;
11498;SDS011;5806;48.748;9.278;2024-01-16T08:08:53;8.40;;;3.20;;
11498;SDS011;5806;48.748;9.278;2024-01-16T08:11:21;6.13;;;2.90;;
11498;SDS011;5806;48.748;9.278;2024-01-16T08:13:48;6.03;;;3.27;;
11498;SDS011;5806;48.748;9.278;2024-01-16T08:16:15;8.83;;;3.37;;
11498;SDS011;5806;48.748;9.278;2024-01-16T08:18:43;9.07;;;3.23;;
11498;SDS011;5806;48.748;9.278;2024-01-16T08:21:10;7.27;;;3.17;;
11498;SDS011;5806;48.748;9.278;2024-01-16T08:23:38;6.33;;;2.87;;
11498;SDS011;5806;48.748;9.278;2024-01-16T08:26:05;10.20;;;3.60;;
11498;SDS011;5806;48.748;9.278;2024-01-16T08:28:32;8.93;;;3.30;;
11498;SDS011;5806;48.748;9.278;2024-01-16T08:31:01;9.40;;;3.03;;
11498;SDS011;5806;48.748;9.278;2024-01-16T08:33:28;7.93;;;3.00;;
11498;SDS011;5806;48.748;9.278;2024-01-16T08:35:57;9.40;;;3.43;;
11498;SDS011;5806;48.748;9.278;2024-01-16T08:38:24;6.50;;;3.53;;
11498;SDS011;5806;48.748;9.278;2024-01-16T08:40:51;9.30;;;3.77;;
11498;SDS011;5806;48.748;9.278;2024-01-16T08:43:19;6.67;;;2.73;;
11498;SDS011;5806;48.748;9.278;2024-01-16T08:45:46;9.20;;;3.53;;
11498;SDS011;5806;48.748;9.278;2024-01-16T08:48:14;8.40;;;3.00;;
11498;SDS011;5806;48.748;9.278;2024-01-16T08:50:42;8.50;;;2.97;;
11498;SDS011;5806;48.748;9.278;2024-01-16T08:53:09;7.83;;;2.90;;
11498;SDS011;5806;48.748;9.278;2024-01-16T08:55:37;7.40;;;2.90;;
11498;SDS011;5806;48.748;9.278;2024-01-16T08:58:04;9.27;;;3.17;;
11498;SDS011;5806;48.748;9.278;2024-01-16T09:00:31;6.67;;;2.93;;
11498;SDS011;5806;48.748;9.278;2024-01-16T09:02:59;10.13;;;2.60;;
11498;SDS011;5806;48.748;9.278;2024-01-16T09:05:27;7.80;;;2.53;;
11498;SDS011;5806;48.748;9.278;2024-01-16T09:07:54;10.07;;;3.03;;
11498;SDS011;5806;48.748;9.278;2024-01-16T09:10:22;5.83;;;2.40;;
11498;SDS011;5806;48.748;9.278;2024-01-16T09:12:49;8.60;;;2.80;;
11498;SDS011;5806;48.748;9.278;2024-01-16T09:15:17;5.83;;;2.53;;
11498;SDS011;5806;48.748;9.278;2024-01-16T09:17:44;6.47;;;2.43;;
11498;SDS011;5806;48.748;9.278;2024-01-16T09:20:12;5.33;;;2.53;;
11498;SDS011;5806;48.748;9.278;2024-01-16T09:22:39;11.23;;;2.30;;
11498;SDS011;5806;48.748;9.278;2024-01-16T09:25:07;7.67;;;2.00;;
11498;SDS011;5806;48.748;9.278;2024-01-16T09:27:34;4.77;;;2.20;;
11498;SDS011;5806;48.748;9.278;2024-01-16T09:30:03;8.83;;;2.60;;
11498;SDS011;5806;48.748;9.278;2024-01-16T09:32:31;7.10;;;2.00;;
11498;SDS011;5806;48.748;9.278;2024-01-16T09:35:01;7.47;;;2.43;;
11498;SDS011;5806;48.748;9.278;2024-01-16T09:37:30;6.37;;;2.23;;
11498;SDS011;5806;48.748;9.278;2024-01-16T09:39:58;5.73;;;2.20;;
11498;SDS011;5806;48.748;9.278;2024-01-16T09:42:25;9.37;;;2.20;;
11498;SDS011;5806;48.748;9.278;2024-01-16T09:44:54;7.93;;;2.83;;
11498;SDS011;5806;48.748;9.278;2024-01-16T09:47:23;10.27;;;2.47;;
11498;SDS011;5806;48.748;9.278;2024-01-16T09:49:51;6.33;;;2.40;;
11498;SDS011;5806;48.748;9.278;2024-01-16T09:52:21;7.50;;;3.60;;
11498;SDS011;5806;48.748;9.278;2024-01-16T09:54:48;8.10;;;2.50;;
11498;SDS011;5806;48.748;9.278;2024-01-16T09:57:16;8.17;;;2.43;;
11498;SDS011;5806;48.748;9.278;2024-01-16T09:59:49;7.83;;;2.60;;
11498;SDS011;5806;48.748;9.278;2024-01-16T10:02:18;5.93;;;2.23;;
11498;SDS011;5806;48.748;9.278;2024-01-16T10:04:47;10.63;;;2.93;;
11498;SDS011;5806;48.748;9.278;2024-01-16T10:07:15;6.10;;;2.50;;
11498;SDS011;5806;48.748;9.278;2024-01-16T10:09:43;7.40;;;2.50;;
11498;SDS011;5806;48.748;9.278;2024-01-16T10:12:11;5.70;;;2.53;;
11498;SDS011;5806;48.748;9.278;2024-01-16T10:14:40;7.93;;;2.33;;
11498;SDS011;5806;48.748;9.278;2024-01-16T10:17:10;9.77;;;2.63;;
11498;SDS011;5806;48.748;9.278;2024-01-16T10:19:54;6.97;;;2.50;;
11498;SDS011;5806;48.748;9.278;2024-01-16T10:22:22;6.10;;;2.70;;
11498;SDS011;5806;48.748;9.278;2024-01-16T10:27:40;6.07;;;2.97;;
11498;SDS011;5806;48.748;9.278;2024-01-16T10:30:09;7.40;;;2.80;;
11498;SDS011;5806;48.748;9.278;2024-01-16T10:32:37;8.77;;;2.90;;
11498;SDS011;5806;48.748;9.278;2024-01-16T10:35:06;6.53;;;2.67;;
11498;SDS011;5806;48.748;9.278;2024-01-16T10:40:19;9.47;;;3.13;;
11498;SDS011;5806;48.748;9.278;2024-01-16T10:43:03;6.90;;;2.70;;
11498;SDS011;5806;48.748;9.278;2024-01-16T10:45:33;8.07;;;2.80;;
11498;SDS011;5806;48.748;9.278;2024-01-16T10:48:07;9.20;;;3.23;;
11498;SDS011;5806;48.748;9.278;2024-01-16T10:50:36;8.33;;;2.40;;
11498;SDS011;5806;48.748;9.278;2024-01-16T10:53:06;9.00;;;3.23;;
11498;SDS011;5806;48.748;9.278;2024-01-16T10:55:37;6.37;;;2.50;;
11498;SDS011;5806;48.748;9.278;2024-01-16T10:58:04;5.77;;;2.37;;
11498;SDS011;5806;48.748;9.278;2024-01-16T11:00:33;9.93;;;2.67;;
11498;SDS011;5806;48.748;9.278;2024-01-16T11:03:06;10.57;;;2.67;;
11498;SDS011;5806;48.748;9.278;2024-01-16T11:05:38;9.07;;;2.93;;
11498;SDS011;5806;48.748;9.278;2024-01-16T11:08:06;13.60;;;3.20;;
11498;SDS011;5806;48.748;9.278;2024-01-16T11:10:39;11.17;;;2.40;;
11498;SDS011;5806;48.748;9.278;2024-01-16T11:13:07;4.50;;;2.47;;
11498;SDS011;5806;48.748;9.278;2024-01-16T11:15:37;11.73;;;2.70;;
11498;SDS011;5806;48.748;9.278;2024-01-16T11:18:06;8.07;;;2.50;;
11498;SDS011;5806;48.748;9.278;2024-01-16T11:20:37;4.97;;;2.40;;
11498;SDS011;5806;48.748;9.278;2024-01-16T11:23:07;6.77;;;2.40;;
11498;SDS011;5806;48.748;9.278;2024-01-16T11:25:35;7.07;;;2.40;;
11498;SDS011;5806;48.748;9.278;2024-01-16T11:28:09;4.13;;;2.53;;
11498;SDS011;5806;48.748;9.278;2024-01-16T11:30:37;10.57;;;3.27;;
11498;SDS011;5806;48.748;9.278;2024-01-16T11:33:06;6.37;;;2.97;;
11498;SDS011;5806;48.748;9.278;2024-01-16T11:35:36;7.27;;;2.73;;
11498;SDS011;5806;48.748;9.278;2024-01-16T11:38:08;9.20;;;2.50;;
11498;SDS011;5806;48.748;9.278;2024-01-16T11:40:38;6.83;;;2.90;;
11498;SDS011;5806;48.748;9.278;2024-01-16T11:46:01;6.23;;;2.47;;
11498;SDS011;5806;48.748;9.278;2024-01-16T11:48:31;6.33;;;2.40;;
11498;SDS011;5806;48.748;9.278;2024-01-16T11:50:58;7.03;;;2.60;;
11498;SDS011;5806;48.748;9.278;2024-01-16T11:53:32;8.67;;;3.20;;
11498;SDS011;5806;48.748;9.278;2024-01-16T12:01:42;8.27;;;2.57;;
11498;SDS011;5806;48.748;9.278;2024-01-16T12:04:11;10.00;;;3.17;;
11498;SDS011;5806;48.748;9.278;2024-01-16T12:06:42;7.10;;;3.13;;
11498;SDS011;5806;48.748;9.278;2024-01-16T12:09:13;7.07;;;2.43;;
11498;SDS011;5806;48.748;9.278;2024-01-16T12:11:41;4.23;;;2.57;;
11498;SDS011;5806;48.748;9.278;2024-01-16T12:14:12;6.83;;;2.97;;
11498;SDS011;5806;48.748;9.278;2024-01-16T12:16:39;9.53;;;3.40;;
11498;SDS011;5806;48.748;9.278;2024-01-16T12:19:07;6.80;;;2.40;;
11498;SDS011;5806;48.748;9.278;2024-01-16T12:21:41;8.83;;;2.83;;
11498;SDS011;5806;48.748;9.278;2024-01-16T12:24:13;9.90;;;3.23;;
11498;SDS011;5806;48.748;9.278;2024-01-16T12:26:42;7.90;;;2.40;;
11498;SDS011;5806;48.748;9.278;2024-01-16T12:29:10;7.93;;;2.30;;
11498;SDS011;5806;48.748;9.278;2024-01-16T12:31:37;6.43;;;2.40;;
11498;SDS011;5806;48.748;9.278;2024-01-16T12:34:05;8.13;;;3.03;;
11498;SDS011;5806;48.748;9.278;2024-01-16T12:36:34;7.47;;;2.60;;
11498;SDS011;5806;48.748;9.278;2024-01-16T12:39:03;6.43;;;2.63;;
11498;SDS011;5806;48.748;9.278;2024-01-16T12:41:39;6.03;;;3.27;;
11498;SDS011;5806;48.748;9.278;2024-01-16T12:44:10;7.50;;;2.40;;
11498;SDS011;5806;48.748;9.278;2024-01-16T12:46:39;8.57;;;2.77;;
11498;SDS011;5806;48.748;9.278;2024-01-16T12:49:06;6.30;;;2.67;;
11498;SDS011;5806;48.748;9.278;2024-01-16T12:51:36;8.33;;;2.53;;
11498;SDS011;5806;48.748;9.278;2024-01-16T12:54:13;7.70;;;2.97;;
11498;SDS011;5806;48.748;9.278;2024-01-16T12:56:42;9.00;;;3.00;;
11498;SDS011;5806;48.748;9.278;2024-01-16T12:59:11;8.43;;;2.57;;
11498;SDS011;5806;48.748;9.278;2024-01-16T13:01:42;4.43;;;2.60;;
11498;SDS011;5806;48.748;9.278;2024-01-16T13:04:12;7.60;;;3.03;;
11498;SDS011;5806;48.748;9.278;2024-01-16T13:06:40;5.53;;;2.37;;
11498;SDS011;5806;48.748;9.278;2024-01-16T13:09:09;9.63;;;2.87;;
11498;SDS011;5806;48.748;9.278;2024-01-16T13:11:48;5.13;;;2.70;;
11498;SDS011;5806;48.748;9.278;2024-01-16T13:14:18;6.50;;;2.73;;
11498;SDS011;5806;48.748;9.278;2024-01-16T13:16:48;8.43;;;3.10;;
11498;SDS011;5806;48.748;9.278;2024-01-16T13:19:17;8.70;;;3.33;;
11498;SDS011;5806;48.748;9.278;2024-01-16T13:21:45;6.03;;;2.63;;
11498;SDS011;5806;48.748;9.278;2024-01-16T13:24:12;6.07;;;2.70;;
11498;SDS011;5806;48.748;9.278;2024-01-16T13:26:40;7.47;;;3.00;;
11498;SDS011;5806;48.748;9.278;2024-01-16T13:29:07;7.43;;;2.90;;
11498;SDS011;5806;48.748;9.278;2024-01-16T13:31:35;10.70;;;3.30;;
11498;SDS011;5806;48.748;9.278;2024-01-16T13:34:02;9.83;;;2.80;;
11498;SDS011;5806;48.748;9.278;2024-01-16T13:36:30;6.30;;;2.57;;
11498;SDS011;5806;48.748;9.278;2024-01-16T13:38:57;9.07;;;2.90;;
11498;SDS011;5806;48.748;9.278;2024-01-16T13:41:24;8.90;;;3.10;;
11498;SDS011;5806;48.748;9.278;2024-01-16T13:43:53;15.43;;;5.27;;
11498;SDS011;5806;48.748;9.278;2024-01-16T13:46:20;5.70;;;3.20;;
11498;SDS011;5806;48.748;9.278;2024-01-16T13:48:47;6.53;;;3.00;;
11498;SDS011;5806;48.748;9.278;2024-01-16T13:51:16;11.17;;;3.50;;
11498;SDS011;5806;48.748;9.278;2024-01-16T13:53:43;8.30;;;2.97;;
11498;SDS011;5806;48.748;9.278;2024-01-16T13:56:10;7.37;;;3.77;;
11498;SDS011;5806;48.748;9.278;2024-01-16T13:58:38;5.57;;;2.97;;
11498;SDS011;5806;48.748;9.278;2024-01-16T14:01:05;5.43;;;2.90;;
11498;SDS011;5806;48.748;9.278;2024-01-16T14:03:34;8.93;;;3.53;;
11498;SDS011;5806;48.748;9.278;2024-01-16T14:06:01;7.90;;;3.30;;
11498;SDS011;5806;48.748;9.278;2024-01-16T14:08:29;6.83;;;3.07;;
11498;SDS011;5806;48.748;9.278;2024-01-16T14:10:57;5.80;;;3.40;;
11498;SDS011;5806;48.748;9.278;2024-01-16T14:13:24;8.47;;;4.00;;
11498;SDS011;5806;48.748;9.278;2024-01-16T14:15:51;8.13;;;3.03;;
11498;SDS011;5806;48.748;9.278;2024-01-16T14:18:19;3.97;;;2.70;;
11498;SDS011;5806;48.748;9.278;2024-01-16T14:20:48;5.37;;;2.97;;
11498;SDS011;5806;48.748;9.278;2024-01-16T14:23:15;6.37;;;3.27;;
11498;SDS011;5806;48.748;9.278;2024-01-16T14:25:43;6.37;;;3.20;;
11498;SDS011;5806;48.748;9.278;2024-01-16T14:28:11;11.10;;;3.80;;
11498;SDS011;5806;48.748;9.278;2024-01-16T14:30:38;7.53;;;3.63;;
11498;SDS011;5806;48.748;9.278;2024-01-16T14:33:06;7.00;;;3.13;;
11498;SDS011;5806;48.748;9.278;2024-01-16T14:35:34;8.33;;;3.37;;
11498;SDS011;5806;48.748;9.278;2024-01-16T14:38:01;9.97;;;3.87;;
11498;SDS011;5806;48.748;9.278;2024-01-16T14:40:29;6.77;;;3.33;;
11498;SDS011;5806;48.748;9.278;2024-01-16T14:42:56;7.43;;;3.40;;
11498;SDS011;5806;48.748;9.278;2024-01-16T14:45:24;8.77;;;3.40;;
11498;SDS011;5806;48.748;9.278;2024-01-16T14:47:52;7.40;;;3.40;;
11498;SDS011;5806;48.748;9.278;2024-01-16T14:50:20;5.70;;;3.40;;
11498;SDS011;5806;48.748;9.278;2024-01-16T14:52:48;7.57;;;3.73;;
11498;SDS011;5806;48.748;9.278;2024-01-16T14:55:15;7.50;;;3.93;;
11498;SDS011;5806;48.748;9.278;2024-01-16T14:57:43;7.90;;;3.27;;
11498;SDS011;5806;48.748;9.278;2024-01-16T15:00:12;6.63;;;3.37;;
11498;SDS011;5806;48.748;9.278;2024-01-16T15:02:43;5.03;;;2.70;;
11498;SDS011;5806;48.748;9.278;2024-01-16T15:05:11;8.60;;;3.13;;
11498;SDS011;5806;48.748;9.278;2024-01-16T15:07:39;7.20;;;2.90;;
11498;SDS011;5806;48.748;9.278;2024-01-16T15:10:08;5.57;;;2.97;;
11498;SDS011;5806;48.748;9.278;2024-01-16T15:12:38;6.83;;;2.83;;